createdAt,value
2023-05-06T00:01:20.779Z,8.38
2023-05-06T00:03:25.019Z,8.10
2023-05-06T00:05:27.880Z,7.97
2023-05-06T00:07:30.557Z,7.53
2023-05-06T00:09:33.370Z,7.20
2023-05-06T00:11:36.100Z,7.72
2023-05-06T00:13:38.743Z,8.02
2023-05-06T00:15:41.557Z,8.02
2023-05-06T00:17:44.648Z,9.02
2023-05-06T00:19:49.560Z,7.93
2023-05-06T00:21:52.663Z,8.38
2023-05-06T00:23:55.794Z,8.52
2023-05-06T00:25:58.600Z,7.03
2023-05-06T00:28:01.336Z,7.60
2023-05-06T00:30:04.354Z,7.40
2023-05-06T00:32:07.182Z,10.30
2023-05-06T00:34:10.845Z,7.68
2023-05-06T00:36:14.929Z,7.47
2023-05-06T00:38:17.840Z,7.90
2023-05-06T00:40:20.475Z,9.45
2023-05-06T00:42:23.512Z,7.57
2023-05-06T00:44:26.310Z,8.82
2023-05-06T00:46:29.305Z,6.28
2023-05-06T00:48:32.091Z,6.68
2023-05-06T00:50:36.033Z,7.47
2023-05-06T00:52:40.104Z,8.43
2023-05-06T00:54:42.965Z,6.90
2023-05-06T00:56:45.761Z,6.38
2023-05-06T00:58:49.496Z,5.97
2023-05-06T01:00:52.497Z,5.80
2023-05-06T01:02:55.294Z,5.28
2023-05-06T01:04:58.542Z,4.85
2023-05-06T01:07:08.887Z,5.32
2023-05-06T01:09:20.837Z,5.05
2023-05-06T01:11:30.858Z,5.28
2023-05-06T01:13:43.727Z,5.55
2023-05-06T01:15:48.055Z,5.38
2023-05-06T01:17:54.469Z,7.13
2023-05-06T01:20:01.703Z,5.65
2023-05-06T01:22:06.781Z,5.35
2023-05-06T01:24:10.841Z,5.25
2023-05-06T01:26:13.486Z,6.38
2023-05-06T01:28:16.113Z,4.55
2023-05-06T01:30:20.648Z,7.32
2023-05-06T01:32:43.957Z,6.55
2023-05-06T01:34:54.869Z,4.85
2023-05-06T01:37:09.085Z,6.05
2023-05-06T01:39:18.065Z,4.95
2023-05-06T01:41:21.964Z,5.55
2023-05-06T01:43:29.235Z,5.70
2023-05-06T01:45:34.834Z,6.85
2023-05-06T01:47:38.552Z,6.93
2023-05-06T01:49:41.491Z,5.28
2023-05-06T01:51:48.795Z,4.88
2023-05-06T01:53:51.530Z,5.13
2023-05-06T01:55:55.632Z,5.28
2023-05-06T01:57:58.292Z,6.03
2023-05-06T02:00:00.995Z,5.70
2023-05-06T02:02:03.833Z,4.95
2023-05-06T02:04:07.348Z,4.82
2023-05-06T02:06:09.258Z,4.85
2023-05-06T02:08:11.929Z,5.63
2023-05-06T02:10:14.615Z,7.53
2023-05-06T02:12:18.727Z,5.75
2023-05-06T02:14:21.399Z,7.95
2023-05-06T02:16:24.208Z,5.28
2023-05-06T02:18:26.934Z,4.70
2023-05-06T02:20:29.742Z,5.68
2023-05-06T02:22:32.513Z,6.88
2023-05-06T02:24:35.240Z,5.47
2023-05-06T02:26:38.008Z,4.75
2023-05-06T02:28:42.325Z,5.97
2023-05-06T02:30:45.494Z,4.60
2023-05-06T02:32:48.280Z,5.55
2023-05-06T02:34:51.672Z,5.47
2023-05-06T02:36:54.434Z,4.97
2023-05-06T02:38:57.159Z,5.82
2023-05-06T02:40:59.948Z,6.35
2023-05-06T02:43:02.828Z,8.05
2023-05-06T02:45:08.746Z,4.90
2023-05-06T02:47:11.661Z,6.25
2023-05-06T02:49:14.316Z,7.50
2023-05-06T02:51:17.191Z,6.72
2023-05-06T02:53:19.887Z,6.03
2023-05-06T02:55:22.618Z,6.95
2023-05-06T02:57:25.640Z,6.63
2023-05-06T02:59:28.270Z,5.38
2023-05-06T03:01:32.370Z,5.65
2023-05-06T03:03:35.136Z,5.03
2023-05-06T03:05:37.842Z,5.95
2023-05-06T03:07:40.777Z,7.47
2023-05-06T03:09:43.500Z,7.07
2023-05-06T03:11:46.260Z,6.18
2023-05-06T03:13:49.042Z,6.22
2023-05-06T03:15:53.783Z,6.72
2023-05-06T03:17:57.974Z,6.78
2023-05-06T03:20:00.916Z,6.18
2023-05-06T03:22:03.653Z,6.47
2023-05-06T03:24:07.199Z,7.70
2023-05-06T03:26:10.053Z,6.60
2023-05-06T03:28:13.040Z,6.22
2023-05-06T03:30:15.955Z,6.07
2023-05-06T03:32:19.177Z,5.80
2023-05-06T03:34:23.195Z,7.10
2023-05-06T03:36:27.931Z,6.65
2023-05-06T03:38:30.742Z,6.43
2023-05-06T03:40:33.746Z,6.35
2023-05-06T03:42:36.515Z,6.68
2023-05-06T03:44:39.219Z,7.43
2023-05-06T03:46:42.206Z,7.78
2023-05-06T03:48:44.957Z,5.97
2023-05-06T03:50:49.128Z,8.00
2023-05-06T03:52:52.351Z,6.28
2023-05-06T03:54:55.061Z,7.03
2023-05-06T03:56:57.848Z,5.90
2023-05-06T03:59:00.893Z,6.57
2023-05-06T04:01:04.305Z,7.70
2023-05-06T04:03:07.120Z,7.22
2023-05-06T04:05:10.308Z,9.60
2023-05-06T04:07:14.562Z,7.35
2023-05-06T04:09:17.319Z,6.63
2023-05-06T04:11:20.028Z,7.38
2023-05-06T04:13:22.886Z,8.50
2023-05-06T04:15:25.721Z,5.75
2023-05-06T04:17:28.432Z,6.70
2023-05-06T04:19:32.098Z,7.53
2023-05-06T04:21:34.796Z,7.00
2023-05-06T04:23:39.070Z,7.60
2023-05-06T04:25:42.608Z,7.28
2023-05-06T04:27:45.400Z,6.85
2023-05-06T04:29:48.271Z,6.85
2023-05-06T04:31:51.536Z,6.82
2023-05-06T04:33:54.792Z,8.00
2023-05-06T04:35:57.540Z,6.53
2023-05-06T04:38:00.309Z,7.18
2023-05-06T04:40:06.273Z,5.93
2023-05-06T04:42:09.127Z,6.38
2023-05-06T04:44:11.817Z,7.45
2023-05-06T04:46:14.567Z,6.30
2023-05-06T04:48:18.859Z,7.10
2023-05-06T04:50:24.361Z,7.72
2023-05-06T04:52:33.054Z,6.18
2023-05-06T04:54:35.746Z,6.82
2023-05-06T04:56:39.780Z,7.15
2023-05-06T04:58:42.680Z,6.95
2023-05-06T05:00:45.393Z,7.57
2023-05-06T05:02:48.332Z,6.80
2023-05-06T05:04:51.156Z,6.57
2023-05-06T05:06:53.803Z,7.22
2023-05-06T05:08:57.093Z,8.88
2023-05-06T05:10:59.781Z,8.93
2023-05-06T05:13:03.976Z,7.63
2023-05-06T05:15:07.915Z,6.80
2023-05-06T05:17:10.947Z,8.63
2023-05-06T05:19:13.707Z,6.25
2023-05-06T05:21:16.875Z,7.97
2023-05-06T05:23:19.613Z,7.35
2023-05-06T05:25:22.300Z,8.77
2023-05-06T05:27:25.026Z,7.65
2023-05-06T05:29:29.058Z,7.80
2023-05-06T05:31:32.081Z,9.35
2023-05-06T05:33:34.817Z,6.43
2023-05-06T05:35:37.589Z,7.00
2023-05-06T05:37:40.337Z,7.53
2023-05-06T05:39:42.977Z,6.75
2023-05-06T05:41:45.743Z,8.30
2023-05-06T05:43:48.498Z,7.90
2023-05-06T05:45:52.564Z,6.25
2023-05-06T05:47:55.402Z,8.05
2023-05-06T05:49:58.070Z,6.88
2023-05-06T05:52:00.795Z,6.35
2023-05-06T05:54:03.493Z,7.68
2023-05-06T05:56:07.003Z,7.95
2023-05-06T05:58:11.585Z,5.70
2023-05-06T06:00:15.105Z,7.72
2023-05-06T06:02:19.144Z,6.10
2023-05-06T06:04:22.083Z,8.25
2023-05-06T06:06:25.285Z,7.60
2023-05-06T06:08:29.688Z,7.28
2023-05-06T06:10:32.372Z,6.88
2023-05-06T06:12:35.101Z,6.45
2023-05-06T06:14:37.844Z,6.20
2023-05-06T06:16:40.593Z,5.38
2023-05-06T06:18:44.742Z,7.70
2023-05-06T06:20:47.433Z,6.15
2023-05-06T06:22:50.171Z,5.18
2023-05-06T06:24:53.725Z,5.53
2023-05-06T06:26:56.474Z,5.25
2023-05-06T06:28:59.147Z,5.50
2023-05-06T06:31:02.077Z,6.05
2023-05-06T06:33:05.025Z,4.75
2023-05-06T06:35:09.567Z,5.38
2023-05-06T06:37:13.119Z,5.35
2023-05-06T06:39:15.858Z,6.68
2023-05-06T06:41:18.627Z,6.78
2023-05-06T06:43:21.431Z,5.07
2023-05-06T06:45:24.150Z,4.22
2023-05-06T06:47:26.944Z,5.90
2023-05-06T06:49:29.905Z,6.63
2023-05-06T06:51:33.926Z,6.40
2023-05-06T06:53:36.782Z,4.97
2023-05-06T06:55:39.593Z,6.50
2023-05-06T06:57:42.276Z,6.47
2023-05-06T06:59:45.190Z,4.07
2023-05-06T07:01:47.934Z,5.10
2023-05-06T07:03:50.695Z,5.28
2023-05-06T07:05:53.363Z,5.95
2023-05-06T07:07:57.402Z,4.13
2023-05-06T07:10:00.287Z,5.15
2023-05-06T07:12:03.075Z,4.38
2023-05-06T07:14:05.771Z,5.57
2023-05-06T07:16:08.568Z,8.32
2023-05-06T07:18:11.298Z,5.10
2023-05-06T07:20:14.317Z,5.13
2023-05-06T07:22:17.103Z,4.47
2023-05-06T07:24:21.188Z,6.22
2023-05-06T07:26:23.924Z,6.30
2023-05-06T07:28:26.794Z,5.22
2023-05-06T07:30:29.533Z,5.32
2023-05-06T07:32:32.343Z,3.92
2023-05-06T07:34:36.082Z,4.50
2023-05-06T07:36:40.848Z,3.95
2023-05-06T07:38:43.648Z,4.00
2023-05-06T07:40:47.738Z,4.03
2023-05-06T07:42:50.410Z,5.50
2023-05-06T07:44:53.127Z,3.90
2023-05-06T07:46:55.969Z,3.42
2023-05-06T07:48:58.757Z,4.63
2023-05-06T07:51:01.917Z,4.57
2023-05-06T07:53:04.985Z,6.72
2023-05-06T07:55:10.087Z,5.32
2023-05-06T07:57:14.681Z,6.10
2023-05-06T07:59:17.415Z,5.43
2023-05-06T08:01:20.101Z,5.38
2023-05-06T08:03:22.954Z,4.75
2023-05-06T08:05:25.759Z,4.97
2023-05-06T08:07:28.658Z,6.18
2023-05-06T08:09:31.356Z,4.10
2023-05-06T08:11:34.116Z,5.38
2023-05-06T08:13:38.230Z,5.05
2023-05-06T08:15:41.322Z,5.25
2023-05-06T08:17:44.111Z,3.90
2023-05-06T08:19:46.941Z,6.78
2023-05-06T08:21:50.485Z,4.68
2023-05-06T08:23:53.678Z,5.28
2023-05-06T08:25:56.346Z,4.82
2023-05-06T08:27:59.151Z,5.72
2023-05-06T08:30:03.279Z,4.47
2023-05-06T08:32:06.553Z,4.05
2023-05-06T08:34:09.442Z,5.35
2023-05-06T08:36:12.151Z,4.72
2023-05-06T08:38:14.859Z,3.97
2023-05-06T08:40:20.538Z,4.75
2023-05-06T08:42:26.079Z,3.40
2023-05-06T08:44:28.925Z,5.60
2023-05-06T08:46:33.092Z,5.72
2023-05-06T08:48:37.372Z,4.47
2023-05-06T08:50:43.214Z,3.22
2023-05-06T08:52:46.279Z,3.72
2023-05-06T08:54:53.531Z,3.42
2023-05-06T08:56:58.548Z,4.82
2023-05-06T08:59:01.676Z,3.92
2023-05-06T09:01:05.428Z,3.53
2023-05-06T09:03:09.562Z,2.72
2023-05-06T09:05:12.805Z,3.30
2023-05-06T09:07:16.313Z,3.40
2023-05-06T09:09:19.154Z,3.38
2023-05-06T09:11:26.486Z,5.88
2023-05-06T09:13:29.230Z,4.80
2023-05-06T09:15:40.724Z,4.07
2023-05-06T09:17:43.525Z,3.13
2023-05-06T09:19:47.757Z,3.55
2023-05-06T09:21:51.932Z,2.20
2023-05-06T09:23:54.697Z,3.20
2023-05-06T09:25:58.130Z,2.90
2023-05-06T09:28:08.966Z,4.40
2023-05-06T09:30:13.439Z,4.95
2023-05-06T09:32:16.857Z,2.40
2023-05-06T09:34:21.135Z,4.63
2023-05-06T09:36:27.516Z,3.65
2023-05-06T09:38:30.248Z,4.30
2023-05-06T09:40:33.406Z,4.43
2023-05-06T09:42:36.213Z,5.38
2023-05-06T09:44:38.988Z,3.67
2023-05-06T09:46:42.222Z,4.38
2023-05-06T09:48:45.983Z,4.68
2023-05-06T09:50:49.956Z,4.57
2023-05-06T09:52:56.116Z,3.85
2023-05-06T09:54:59.355Z,3.17
2023-05-06T09:57:03.710Z,3.85
2023-05-06T09:59:07.714Z,3.38
2023-05-06T10:01:15.189Z,3.17
2023-05-06T10:03:23.301Z,3.78
2023-05-06T10:05:27.026Z,4.30
2023-05-06T10:07:30.683Z,3.33
2023-05-06T10:09:35.866Z,3.22
2023-05-06T10:11:38.567Z,3.33
2023-05-06T10:13:42.312Z,4.30
2023-05-06T10:15:47.226Z,4.30
2023-05-06T10:17:52.840Z,3.08
2023-05-06T10:19:59.842Z,3.67
2023-05-06T10:22:09.834Z,4.18
2023-05-06T10:24:14.087Z,3.38
2023-05-06T10:26:20.897Z,5.93
2023-05-06T10:28:30.496Z,5.05
2023-05-06T10:30:35.288Z,3.70
2023-05-06T10:32:42.351Z,4.50
2023-05-06T10:34:54.129Z,4.90
2023-05-06T10:37:00.150Z,5.28
2023-05-06T10:39:04.634Z,3.55
2023-05-06T10:41:09.142Z,3.78
2023-05-06T10:43:27.254Z,4.32
2023-05-06T10:45:30.034Z,4.45
2023-05-06T10:48:07.334Z,6.55
2023-05-06T10:50:23.779Z,4.72
2023-05-06T10:52:26.707Z,4.38
2023-05-06T10:54:29.428Z,4.57
2023-05-06T10:56:33.531Z,4.43
2023-05-06T10:58:38.516Z,4.95
2023-05-06T11:00:41.431Z,4.20
2023-05-06T11:02:47.404Z,3.92
2023-05-06T11:05:00.551Z,5.63
2023-05-06T11:07:10.776Z,3.90
2023-05-06T11:09:18.375Z,3.20
2023-05-06T11:11:50.904Z,3.83
2023-05-06T11:13:55.430Z,4.95
2023-05-06T11:16:00.212Z,3.33
2023-05-06T11:18:45.978Z,3.20
2023-05-06T11:20:48.685Z,4.00
2023-05-06T11:22:51.633Z,4.63
2023-05-06T11:24:54.357Z,4.45
2023-05-06T11:26:58.843Z,4.32
2023-05-06T11:29:04.036Z,4.20
2023-05-06T11:31:07.878Z,3.72
2023-05-06T11:33:18.486Z,3.20
2023-05-06T11:35:22.991Z,4.43
2023-05-06T11:37:27.057Z,3.80
2023-05-06T11:39:32.323Z,4.30
2023-05-06T11:41:40.860Z,5.55
2023-05-06T11:43:47.081Z,4.57
2023-05-06T11:45:50.678Z,3.38
2023-05-06T11:47:55.544Z,3.55
2023-05-06T11:49:59.012Z,4.38
2023-05-06T11:52:04.838Z,5.90
2023-05-06T11:54:09.485Z,3.67
2023-05-06T11:56:13.092Z,4.65
2023-05-06T11:58:16.458Z,3.40
2023-05-06T12:00:21.194Z,3.58
2023-05-06T12:02:24.083Z,4.53
2023-05-06T12:04:26.923Z,4.25
2023-05-06T12:06:35.130Z,4.78
2023-05-06T12:08:39.933Z,3.92
2023-05-06T12:10:43.126Z,4.53
2023-05-06T12:12:45.961Z,4.32
2023-05-06T12:14:50.412Z,4.40
2023-05-06T12:16:55.991Z,5.03
2023-05-06T12:18:59.163Z,4.15
2023-05-06T12:21:03.777Z,5.65
2023-05-06T12:23:07.283Z,5.47
2023-05-06T12:25:18.374Z,5.32
2023-05-06T12:27:34.657Z,5.28
2023-05-06T12:29:37.452Z,5.22
2023-05-06T12:31:40.524Z,3.88
2023-05-06T12:33:48.802Z,4.90
2023-05-06T12:35:54.697Z,4.40
2023-05-06T12:37:57.913Z,3.55
2023-05-06T12:40:01.251Z,3.67
2023-05-06T12:42:06.157Z,4.28
2023-05-06T12:44:34.481Z,4.40
2023-05-06T12:46:37.263Z,5.97
2023-05-06T12:48:40.596Z,3.45
2023-05-06T12:50:45.836Z,5.00
2023-05-06T12:52:48.721Z,3.20
2023-05-06T12:54:52.656Z,3.47
2023-05-06T12:56:55.596Z,4.18
2023-05-06T12:59:01.664Z,4.15
2023-05-06T13:01:04.979Z,3.47
2023-05-06T13:03:07.900Z,3.75
2023-05-06T13:05:10.927Z,6.35
2023-05-06T13:07:13.755Z,5.13
2023-05-06T13:09:16.898Z,3.38
2023-05-06T13:11:21.506Z,3.35
2023-05-06T13:13:24.436Z,4.07
2023-05-06T13:15:28.758Z,3.83
2023-05-06T13:17:31.678Z,4.22
2023-05-06T13:19:34.617Z,9.10
2023-05-06T13:21:37.619Z,3.45
2023-05-06T13:23:46.728Z,3.67
2023-05-06T13:26:03.655Z,3.95
2023-05-06T13:28:07.773Z,3.55
2023-05-06T13:30:11.157Z,4.97
2023-05-06T13:32:15.469Z,4.13
2023-05-06T13:34:18.221Z,4.50
2023-05-06T13:36:21.031Z,4.40
2023-05-06T13:38:24.003Z,4.28
2023-05-06T13:40:26.842Z,5.68
2023-05-06T13:42:29.741Z,4.80
2023-05-06T13:44:33.092Z,7.57
2023-05-06T13:46:36.011Z,3.60
2023-05-06T13:48:40.174Z,3.42
2023-05-06T13:50:43.328Z,3.30
2023-05-06T13:52:46.050Z,4.35
2023-05-06T13:54:48.908Z,5.45
2023-05-06T13:56:51.734Z,4.40
2023-05-06T13:58:54.681Z,3.58
2023-05-06T14:00:57.633Z,4.38
2023-05-06T14:03:00.758Z,3.00
2023-05-06T14:05:05.946Z,3.50
2023-05-06T14:07:08.828Z,4.95
2023-05-06T14:09:12.208Z,4.38
2023-05-06T14:11:15.056Z,3.85
2023-05-06T14:13:18.184Z,3.55
2023-05-06T14:15:21.240Z,2.95
2023-05-06T14:17:24.166Z,4.68
2023-05-06T14:19:27.191Z,3.45
2023-05-06T14:21:31.973Z,3.78
2023-05-06T14:23:34.916Z,5.70
2023-05-06T14:25:38.029Z,4.18
2023-05-06T14:27:40.829Z,3.72
2023-05-06T14:29:46.034Z,3.63
2023-05-06T14:31:48.848Z,4.70
2023-05-06T14:33:51.611Z,5.45
2023-05-06T14:35:54.390Z,4.22
2023-05-06T14:37:58.654Z,4.15
2023-05-06T14:40:01.496Z,4.13
2023-05-06T14:42:04.419Z,3.78
2023-05-06T14:44:07.196Z,5.88
2023-05-06T14:46:11.270Z,3.30
2023-05-06T14:48:14.158Z,3.20
2023-05-06T14:50:16.985Z,3.28
2023-05-06T14:52:20.162Z,3.60
2023-05-06T14:54:26.733Z,3.13
2023-05-06T14:56:29.591Z,4.05
2023-05-06T14:58:32.388Z,3.15
2023-05-06T15:00:35.297Z,4.28
2023-05-06T15:02:40.566Z,4.60
2023-05-06T15:04:43.475Z,2.95
2023-05-06T15:06:46.219Z,3.72
2023-05-06T15:08:49.227Z,3.75
2023-05-06T15:10:53.442Z,3.85
2023-05-06T15:12:56.285Z,4.90
2023-05-06T15:14:59.053Z,3.50
2023-05-06T15:17:01.848Z,3.90
2023-05-06T15:19:04.729Z,3.42
2023-05-06T15:21:07.657Z,3.40
2023-05-06T15:23:10.643Z,2.70
2023-05-06T15:25:22.407Z,3.10
2023-05-06T15:27:30.794Z,3.53
2023-05-06T15:29:33.566Z,3.60
2023-05-06T15:31:39.101Z,5.63
2023-05-06T15:33:42.003Z,3.85
2023-05-06T15:35:44.945Z,3.03
2023-05-06T15:37:47.739Z,3.70
2023-05-06T15:39:50.654Z,3.58
2023-05-06T15:41:53.515Z,3.20
2023-05-06T15:43:59.087Z,3.72
2023-05-06T15:46:01.930Z,3.97
2023-05-06T15:48:04.928Z,2.95
2023-05-06T15:50:20.140Z,3.08
2023-05-06T15:52:31.552Z,4.85
2023-05-06T15:54:37.611Z,3.63
2023-05-06T15:58:45.010Z,2.92
2023-05-06T16:00:49.227Z,3.25
2023-05-06T16:02:52.174Z,3.17
2023-05-06T16:04:55.368Z,2.83
2023-05-06T16:06:58.740Z,4.00
2023-05-06T16:09:01.491Z,3.83
2023-05-06T16:11:05.384Z,4.47
2023-05-06T16:13:08.424Z,4.40
2023-05-06T16:15:11.853Z,3.33
2023-05-06T16:17:16.750Z,4.60
2023-05-06T16:19:19.525Z,3.30
2023-05-06T16:21:22.331Z,3.22
2023-05-06T16:23:25.692Z,3.60
2023-05-06T16:25:28.410Z,3.58
2023-05-06T16:27:31.204Z,3.63
2023-05-06T16:29:34.028Z,3.83
2023-05-06T16:31:38.003Z,4.50
2023-05-06T16:33:42.358Z,3.05
2023-05-06T16:35:46.434Z,4.07
2023-05-06T16:37:49.237Z,3.10
2023-05-06T16:39:52.076Z,3.72
2023-05-06T16:41:55.236Z,4.13
2023-05-06T16:43:58.036Z,3.00
2023-05-06T16:46:02.313Z,3.63
2023-05-06T16:48:05.262Z,3.25
2023-05-06T16:50:10.168Z,2.83
2023-05-06T16:52:13.166Z,4.47
2023-05-06T16:54:16.026Z,3.92
2023-05-06T16:56:18.853Z,2.97
2023-05-06T16:58:21.935Z,3.30
2023-05-06T17:00:25.874Z,4.20
2023-05-06T17:02:28.877Z,3.35
2023-05-06T17:04:31.665Z,3.30
2023-05-06T17:06:35.942Z,3.85
2023-05-06T17:08:38.745Z,4.53
2023-05-06T17:10:45.972Z,2.90
2023-05-06T17:12:48.957Z,2.80
2023-05-06T17:14:51.768Z,2.40
2023-05-06T17:16:54.573Z,3.05
2023-05-06T17:18:57.504Z,2.95
2023-05-06T17:21:00.296Z,2.90
2023-05-06T17:23:04.504Z,2.85
2023-05-06T17:25:08.179Z,3.65
2023-05-06T17:27:10.973Z,3.10
2023-05-06T17:29:13.681Z,2.65
2023-05-06T17:31:16.491Z,3.75
2023-05-06T17:33:19.344Z,3.55
2023-05-06T17:35:22.269Z,4.05
2023-05-06T17:37:25.122Z,2.53
2023-05-06T17:39:29.263Z,3.63
2023-05-06T17:41:32.126Z,3.47
2023-05-06T17:43:35.108Z,3.25
2023-05-06T17:45:37.971Z,3.10
2023-05-06T17:47:40.901Z,3.40
2023-05-06T17:49:43.878Z,3.78
2023-05-06T17:51:46.712Z,3.20
2023-05-06T17:53:49.471Z,3.33
2023-05-06T17:55:53.613Z,3.42
2023-05-06T17:57:56.364Z,3.72
2023-05-06T17:59:59.177Z,2.90
2023-05-06T18:02:01.999Z,4.20
2023-05-06T18:04:04.927Z,4.00
2023-05-06T18:06:07.989Z,4.32
2023-05-06T18:08:10.726Z,5.18
2023-05-06T18:10:14.035Z,3.20
2023-05-06T18:12:18.305Z,4.43
2023-05-06T18:14:21.115Z,3.50
2023-05-06T18:16:24.005Z,3.67
2023-05-06T18:18:26.916Z,3.75
2023-05-06T18:20:29.665Z,4.00
2023-05-06T18:22:32.502Z,5.57
2023-05-06T18:24:35.909Z,4.20
2023-05-06T18:26:44.992Z,4.88
2023-05-06T18:28:50.043Z,3.33
2023-05-06T18:30:52.902Z,4.82
2023-05-06T18:32:56.752Z,4.47
2023-05-06T18:34:59.947Z,5.43
2023-05-06T18:37:02.725Z,7.68
2023-05-06T18:39:05.885Z,5.40
2023-05-06T18:41:09.093Z,6.88
2023-05-06T18:43:11.896Z,9.18
2023-05-06T18:45:16.359Z,6.90
2023-05-06T18:47:19.721Z,5.65
2023-05-06T18:49:23.198Z,7.03
2023-05-06T18:51:26.281Z,5.50
2023-05-06T18:53:29.088Z,5.75
2023-05-06T18:55:31.867Z,4.80
2023-05-06T18:57:34.665Z,4.57
2023-05-06T18:59:37.524Z,5.53
2023-05-06T19:01:41.661Z,4.80
2023-05-06T19:03:44.590Z,5.80
2023-05-06T19:05:47.457Z,4.90
2023-05-06T19:07:50.266Z,5.35
2023-05-06T19:09:53.088Z,4.82
2023-05-06T19:11:55.839Z,4.95
2023-05-06T19:13:58.630Z,6.28
2023-05-06T19:16:01.397Z,4.55
2023-05-06T19:18:05.900Z,4.65
2023-05-06T19:20:10.583Z,4.70
2023-05-06T19:22:13.782Z,4.30
2023-05-06T19:24:16.566Z,4.88
2023-05-06T19:26:19.386Z,7.80
2023-05-06T19:28:22.223Z,5.18
2023-05-06T19:30:25.102Z,5.15
2023-05-06T19:32:27.959Z,5.63
2023-05-06T19:34:32.261Z,4.85
2023-05-06T19:36:35.202Z,6.70
2023-05-06T19:38:38.050Z,4.72
2023-05-06T19:40:40.859Z,5.68
2023-05-06T19:42:43.647Z,5.70
2023-05-06T19:44:48.284Z,4.28
2023-05-06T19:46:54.377Z,3.70
2023-05-06T19:48:58.142Z,4.70
2023-05-06T19:51:02.256Z,6.00
2023-05-06T19:53:05.297Z,5.82
2023-05-06T19:55:09.333Z,5.35
2023-05-06T19:57:12.298Z,4.18
2023-05-06T19:59:15.058Z,4.38
2023-05-06T20:01:21.759Z,6.43
2023-05-06T20:03:25.355Z,4.70
2023-05-06T20:05:30.916Z,5.53
2023-05-06T20:07:35.115Z,3.75
2023-05-06T20:09:38.150Z,4.22
2023-05-06T20:11:41.129Z,4.13
2023-05-06T20:13:43.886Z,4.97
2023-05-06T20:15:47.530Z,4.63
2023-05-06T20:17:50.468Z,4.63
2023-05-06T20:19:54.378Z,5.32
2023-05-06T20:21:57.709Z,3.85
2023-05-06T20:24:01.957Z,4.72
2023-05-06T20:26:04.719Z,5.70
2023-05-06T20:28:07.645Z,4.75
2023-05-06T20:30:11.080Z,5.03
2023-05-06T20:32:13.933Z,4.75
2023-05-06T20:34:16.840Z,5.93
2023-05-06T20:36:19.622Z,3.47
2023-05-06T20:38:22.460Z,5.38
2023-05-06T20:40:26.755Z,4.40
2023-05-06T20:42:29.672Z,3.90
2023-05-06T20:44:32.583Z,4.10
2023-05-06T20:46:35.441Z,3.70
2023-05-06T20:48:38.170Z,5.15
2023-05-06T20:50:41.060Z,4.20
2023-05-06T20:52:45.605Z,4.68
2023-05-06T20:54:48.713Z,3.75
2023-05-06T20:56:52.966Z,4.10
2023-05-06T20:58:56.713Z,4.05
2023-05-06T21:00:59.759Z,4.45
2023-05-06T21:03:02.664Z,4.30
2023-05-06T21:05:06.314Z,6.57
2023-05-06T21:07:09.619Z,5.40
2023-05-06T21:09:12.447Z,5.50
2023-05-06T21:11:15.378Z,5.05
2023-05-06T21:13:19.573Z,5.85
2023-05-06T21:15:22.474Z,5.45
2023-05-06T21:17:25.441Z,5.18
2023-05-06T21:19:28.214Z,4.97
2023-05-06T21:21:32.591Z,7.05
2023-05-06T21:23:35.848Z,4.50
2023-05-06T21:25:38.669Z,5.30
2023-05-06T21:27:41.438Z,3.83
2023-05-06T21:29:45.756Z,5.07
2023-05-06T21:31:48.692Z,4.53
2023-05-06T21:33:54.722Z,4.78
2023-05-06T21:35:57.540Z,5.07
2023-05-06T21:38:00.336Z,4.57
2023-05-06T21:40:04.440Z,5.13
2023-05-06T21:42:07.333Z,5.40
2023-05-06T21:44:10.395Z,6.13
2023-05-06T21:46:14.574Z,4.50
2023-05-06T21:48:17.403Z,4.97
2023-05-06T21:50:20.312Z,4.18
2023-05-06T21:52:23.156Z,3.45
2023-05-06T21:54:26.353Z,4.32
2023-05-06T21:56:29.589Z,5.15
2023-05-06T21:58:32.320Z,4.40
2023-05-06T22:00:35.244Z,4.40
2023-05-06T22:02:40.009Z,4.22
2023-05-06T22:04:43.088Z,4.68
2023-05-06T22:06:45.854Z,6.18
2023-05-06T22:08:48.599Z,6.70
2023-05-06T22:10:51.470Z,7.30
2023-05-06T22:12:54.350Z,6.47
2023-05-06T22:14:57.538Z,7.53
2023-05-06T22:17:01.615Z,4.93
2023-05-06T22:19:06.789Z,5.07
2023-05-06T22:21:09.983Z,5.78
2023-05-06T22:23:12.799Z,5.50
2023-05-06T22:25:15.587Z,4.72
2023-05-06T22:27:18.321Z,4.93
2023-05-06T22:29:21.153Z,6.00
2023-05-06T22:31:24.688Z,6.18
2023-05-06T22:33:27.938Z,5.72
2023-05-06T22:35:32.106Z,5.38
2023-05-06T22:37:34.885Z,4.68
2023-05-06T22:39:37.742Z,7.82
2023-05-06T22:41:40.584Z,4.82
2023-05-06T22:43:43.356Z,5.22
2023-05-06T22:45:46.239Z,6.63
2023-05-06T22:47:49.029Z,5.68
2023-05-06T22:49:51.809Z,6.25
2023-05-06T22:51:56.099Z,5.25
2023-05-06T22:53:58.857Z,6.60
2023-05-06T22:56:01.760Z,5.00
2023-05-06T22:58:04.537Z,4.78
2023-05-06T23:00:08.828Z,5.88
2023-05-06T23:02:11.741Z,5.60
2023-05-06T23:04:14.572Z,6.05
2023-05-06T23:06:18.120Z,6.30
2023-05-06T23:08:22.272Z,4.88
2023-05-06T23:10:25.131Z,6.43
2023-05-06T23:12:28.743Z,5.55
2023-05-06T23:14:31.476Z,5.25
2023-05-06T23:16:34.327Z,4.78
2023-05-06T23:18:37.297Z,4.82
2023-05-06T23:20:40.090Z,4.55
2023-05-06T23:22:42.938Z,5.15
2023-05-06T23:24:47.105Z,7.53
2023-05-06T23:26:49.900Z,6.28
2023-05-06T23:28:52.664Z,5.75
2023-05-06T23:30:55.510Z,4.75
2023-05-06T23:32:58.452Z,6.25
2023-05-06T23:35:02.600Z,6.18
2023-05-06T23:37:05.388Z,5.78
2023-05-06T23:39:11.504Z,7.68
2023-05-06T23:41:15.669Z,5.57
2023-05-06T23:43:18.537Z,6.70
2023-05-06T23:45:21.426Z,5.88
2023-05-06T23:47:25.397Z,5.97
2023-05-06T23:49:28.308Z,6.22
2023-05-06T23:51:31.714Z,6.13
2023-05-06T23:53:36.042Z,5.90
2023-05-06T23:55:39.294Z,6.72
2023-05-06T23:57:43.468Z,5.63
2023-05-06T23:59:46.400Z,5.95
